RJTH(METAR)
06/26 17:00
RJTH 260800Z 22007KT 9999 FEW012 SCT030 25/22 Q1015 RMK A2997=
戻る
トップページへ戻る
IMOC Co,.Ltd.